Terminal Aerodrome Forecast
Issued by NWS

Home | Current Version | Previous Version | Graphics & Text | Print | Product List | Glossary Off
Versions: 1 2 3 4 5 6 7 8 9 10 11 12 13 14 15

726
FTUS43 KFGF 242332
TAFBJI
TAF
KBJI 242332Z 2500/2524 VRB05KT 2SM -SN OVC018
      TEMPO 2500/2504 1/2SM SN OVC009
     FM250400 VRB03KT 3SM -SN OVC015
      TEMPO 2504/2507 1SM -SN OVC008
     FM250900 VRB06KT P6SM OVC012
     FM251400 26009KT P6SM BKN012
     FM251800 26013G19KT P6SM BKN020=

USA.gov is the U.S. government's official web portal to all federal, state and local government web resources and services.